Historyczne dane pomiarowe

Dodano dane terminowe – wersja testowa.

Dane z okresu 1951-2019

Wersja bazy: 1.34 [2019-03-16, lista zmian], aktualizacja planowana na 2019-04-15

Dane meteo z obszaru Polski uzyskane na podstawie danych udostępnionych przez Instytut Meteorologii i Gospodarki Wodnej – Państwowy Instytut Badawczy.

 

Wybierz Datę:    

       

TemperaturaWilgotnośćWiatrCiśnienieOpadyŚniegCzas trwania zjawisk
 Stacja t tx tn tng RH VA  wxwx mslp ppp RRR   cm mm wxwxwxwxwxwxwx
1987-08-14 12.7 16.5 6.6- 86.8- 8.0 2.3---- 16.6------------
1987-08-13 12.7 18.8 6.2- 82.0- 4.7 2.0---- 0.0------------
1987-08-12 12.1 15.5 7.5- 80.3- 3.0 3.3---- 0.5------------
1987-08-11 12.0 14.6 9.6- 90.0- 6.7 2.7---- 17.8------------
1987-08-10 13.6 17.2 11.2- 82.5- 5.3 2.7---- 0.6------------
1987-08-09 14.8 18.8 9.5- 79.5- 5.7 1.7---- 1.5------------
1987-08-08 12.7 18.9 5.2- 73.3- 3.3 3.0---- 0.0------------
1987-08-07 12.1 17.0 7.0- 74.3- 2.7 2.7---- 1.9------------
1987-08-06 11.2 14.1 9.9- 93.0- 8.0 1.0---- 5.8------------
1987-08-05 10.9 13.1 9.2- 93.3- 8.0 3.7---- 15.6------------
1987-08-04 11.6 14.7 9.5- 84.0- 6.0 3.3---- 7.9------------
1987-08-03 12.5 15.5 9.2- 76.3- 6.3 2.7---- 3.1------------
1987-08-02 11.5 16.5 8.4- 79.8- 5.3 3.7---- 3.4------------
1987-08-01 14.2 18.4 12.6- 84.0- 7.3 3.3---- 1.1------------
1987-07-31 14.4 18.5 11.2- 80.3- 5.3 3.0---- 1.7------------
1987-07-30 15.9 20.0 11.0- 77.8- 6.0 1.7---- 6.6------------
1987-07-29 13.4 16.6 9.8- 76.8- 6.0 2.0---- 0.0------------
1987-07-28 12.7 16.6 9.5- 91.0- 8.0 3.0---- 7.5------------
1987-07-27 11.4 15.2 9.0- 78.0- 6.7 3.3---- 0.0------------
1987-07-26 12.3 16.0 7.6- 72.0- 5.7 2.7---- 0.0------------
1987-07-25 13.8 17.0 10.5- 82.3- 6.0 2.3---- 0.0------------
1987-07-24 17.5 21.5 11.5- 84.8- 7.3 2.3---- 0.9------------
1987-07-23 18.8 22.4 14.0- 84.0- 8.0 1.7---- 0.0------------
1987-07-22 17.3 22.5 14.0- 91.3- 8.0 1.7---- 0.7------------
1987-07-21 17.5 25.0 10.1- 81.5- 4.7 2.3---- 3.7------------
1987-07-20 16.1 22.5 12.4- 83.8- 4.7 2.3---- 0.0------------
1987-07-19 16.8 21.0 13.5- 93.8- 8.0 2.7---- 32.6------------
1987-07-18 19.9 23.5 15.0- 92.5- 7.3 2.7---- 0.0------------
1987-07-17 20.1 25.2 12.5- 80.0- 5.0 3.3---- 0.0------------
1987-07-16 17.1 22.0 11.0- 83.5- 3.0 3.0---- 0.0------------
1987-07-15 16.7 22.0 10.2- 79.5- 2.3 2.7---- 0.0------------
1987-07-14 15.0 20.0 9.2- 88.0- 1.0 2.3---- 0.0------------
1987-07-13 14.2 16.6 11.9- 89.8- 6.7 3.3---- 0.0------------
1987-07-12 16.3 20.4 12.5- 94.5- 4.3 3.0---- 10.1------------
1987-07-11 12.1 15.6 9.0- 95.0- 8.0 1.3---- 6.5------------
1987-07-10 12.3 16.4 8.2- 90.0- 4.0 3.7---- 4.6------------
1987-07-09 15.0 20.0 11.2- 90.8- 3.7 3.0---- 4.2------------
1987-07-08 19.1 27.0 11.9- 66.3- 4.7 2.3---- 0.0------------
1987-07-07 21.4 27.8 10.0- 54.3- 0.0 2.0---- 0.0------------
1987-07-06 17.3 25.2 5.2- 57.8- 0.3 1.3---- 0.0------------
1987-07-05 14.9 22.0 7.5- 65.8- 2.7 2.3---- 0.0------------
1987-07-04 15.7 18.5 10.2- 65.3- 1.7 3.0---- 0.0------------
1987-07-03 15.4 21.2 4.2- 72.0- 1.7 2.3---- 0.0------------
1987-07-02 15.0 19.9 7.5- 72.0- 1.7 2.7---- 0.0------------
1987-07-01 20.6 27.8 15.5- 81.3- 4.7 2.3---- 0.3------------
1987-06-30 23.9 30.1 17.0- 73.0- 5.3 2.0---- 0.0------------
1987-06-29 16.5 22.5 7.0- 86.3- 6.0 1.7---- 0.0------------
1987-06-28 14.2 18.2 9.8- 68.8- 3.0 2.7---- 0.9------------
1987-06-27 15.2 19.0 11.0- 65.5- 2.0 2.7---- 4.2------------
1987-06-26 14.3 19.5 5.8- 68.8- 4.3 3.3---- 0.0------------
1987-06-25 10.6 14.6 4.2- 82.5- 5.0 2.3---- 1.4------------
1987-06-24 11.6 14.6 10.0- 83.8- 6.7 3.0---- 1.1------------
1987-06-23 14.1 19.0 7.2- 76.8- 5.0 1.7---- 4.2------------
1987-06-22 12.7 16.2 10.4- 82.0- 8.0 3.0---- 0.0------------
1987-06-21 16.2 22.6 10.2- 74.8- 4.3 1.7---- 1.7------------
1987-06-20 15.4 20.8 6.0- 65.5- 1.7 3.0---- 0.7------------
1987-06-19 10.8 14.3 7.6- 78.8- 4.7 2.7---- 0.0------------
1987-06-18 9.5 15.1 4.9- 80.3- 5.3 3.0---- 4.5------------
1987-06-17 10.9 14.6 8.2- 67.8- 3.0 4.7---- 0.0------------
1987-06-16 9.7 13.3 6.6- 86.3- 8.0 4.0---- 2.8------------
787.7 ms

 

Źródłem pochodzenia danych jest Instytut Meteorologii i Gospodarki Wodnej – Państwowy Instytut Badawczy. Dane Instytutu Meteorologii i Gospodarki Wodnej – Państwowego Instytutu Badawczego zostały przetworzone.

Dane źródłowe można odnaleźć na stronie https://dane.imgw.pl